createdAt,value
2023-03-21T00:01:03.850Z,8.17
2023-03-21T00:06:11.690Z,8.24
2023-03-21T00:11:14.412Z,8.34
2023-03-21T00:16:21.406Z,8.52
2023-03-21T00:21:46.508Z,8.50
2023-03-21T00:26:53.977Z,8.40
2023-03-21T00:31:56.700Z,8.39
2023-03-21T00:37:01.560Z,8.53
2023-03-21T00:42:03.918Z,8.65
2023-03-21T00:47:08.199Z,8.65
2023-03-21T00:52:30.570Z,8.56
2023-03-21T00:57:39.005Z,8.51
2023-03-21T01:03:02.528Z,8.54
2023-03-21T01:08:20.638Z,8.60
2023-03-21T01:13:25.918Z,8.68
2023-03-21T01:18:29.979Z,8.67
2023-03-21T01:23:31.671Z,8.68
2023-03-21T01:28:34.382Z,8.62
2023-03-21T01:33:36.208Z,8.65
2023-03-21T01:38:38.089Z,8.64
2023-03-21T01:43:40.713Z,8.76
2023-03-21T01:48:44.297Z,8.76
2023-03-21T01:53:47.482Z,8.68
2023-03-21T01:58:50.944Z,8.61
2023-03-21T02:04:04.968Z,8.60
2023-03-21T02:09:31.826Z,8.56
2023-03-21T02:14:36.088Z,8.62
2023-03-21T02:20:17.621Z,8.62
2023-03-21T02:25:22.080Z,8.61
2023-03-21T02:30:56.408Z,8.57
2023-03-21T02:36:34.128Z,8.50
2023-03-21T02:41:40.634Z,8.48
2023-03-21T02:46:51.236Z,8.50
2023-03-21T02:52:08.737Z,8.48
2023-03-21T02:57:19.286Z,8.54
2023-03-21T03:02:26.212Z,8.55
2023-03-21T03:07:52.273Z,8.55
2023-03-21T03:13:09.325Z,8.57
2023-03-21T03:18:18.748Z,8.57
2023-03-21T03:23:30.614Z,8.57
2023-03-21T03:28:38.040Z,8.54
2023-03-21T03:33:48.238Z,8.54
2023-03-21T03:38:51.662Z,8.56
2023-03-21T03:43:57.869Z,8.61
2023-03-21T03:49:10.196Z,8.68
2023-03-21T03:54:21.079Z,8.65
2023-03-21T03:59:25.122Z,8.61
2023-03-21T04:04:38.247Z,8.58
2023-03-21T04:09:44.826Z,8.61
2023-03-21T04:14:49.995Z,8.64
2023-03-21T04:19:59.969Z,8.66
2023-03-21T04:25:08.025Z,8.60
2023-03-21T04:30:12.118Z,8.53
2023-03-21T04:35:37.754Z,8.57
2023-03-21T04:40:40.509Z,8.50
2023-03-21T04:45:42.792Z,8.48
2023-03-21T04:50:44.850Z,8.51
2023-03-21T04:55:46.778Z,8.53
2023-03-21T05:00:48.508Z,8.57
2023-03-21T05:05:50.808Z,8.54
2023-03-21T05:10:53.966Z,8.52
2023-03-21T05:15:56.592Z,8.46
2023-03-21T05:20:58.413Z,8.49
2023-03-21T05:26:00.976Z,8.51
2023-03-21T05:31:16.792Z,8.54
2023-03-21T05:36:20.541Z,8.58
2023-03-21T05:41:22.581Z,8.59
2023-03-21T05:46:24.673Z,8.63
2023-03-21T05:51:26.846Z,8.68
2023-03-21T05:56:28.623Z,8.73
2023-03-21T06:01:39.662Z,8.79
2023-03-21T06:06:46.956Z,8.78
2023-03-21T06:11:52.087Z,8.87
2023-03-21T06:17:02.555Z,9.01
2023-03-21T06:22:06.036Z,9.12
2023-03-21T06:27:11.295Z,9.14
2023-03-21T06:32:24.947Z,9.18
2023-03-21T06:37:32.244Z,9.23
2023-03-21T06:42:34.205Z,9.27
2023-03-21T06:47:43.263Z,9.28
2023-03-21T06:52:54.668Z,9.34
2023-03-21T06:57:57.486Z,9.45
2023-03-21T07:03:02.265Z,9.54
2023-03-21T07:08:06.180Z,9.62
2023-03-21T07:13:10.448Z,9.75
2023-03-21T07:18:17.528Z,9.86
2023-03-21T07:23:25.220Z,9.94
2023-03-21T07:28:31.901Z,10.03
2023-03-21T07:33:34.059Z,10.20
2023-03-21T07:38:36.471Z,10.33
2023-03-21T07:43:39.427Z,10.43
2023-03-21T07:48:44.553Z,10.57
2023-03-21T07:53:48.678Z,10.72
2023-03-21T07:58:50.832Z,10.80
2023-03-21T08:03:53.692Z,10.89
2023-03-21T08:08:55.387Z,10.97
2023-03-21T08:14:01.535Z,11.06
2023-03-21T08:19:03.474Z,11.14
2023-03-21T08:24:07.065Z,11.32
2023-03-21T08:29:09.105Z,11.44
2023-03-21T08:34:10.905Z,11.47
2023-03-21T08:39:12.797Z,11.51
2023-03-21T08:44:17.315Z,11.65
2023-03-21T08:49:20.053Z,11.80
2023-03-21T08:54:22.672Z,11.91
2023-03-21T08:59:24.313Z,11.96
2023-03-21T09:04:26.191Z,12.12
2023-03-21T09:09:29.021Z,12.22
2023-03-21T09:14:30.760Z,12.43
2023-03-21T09:19:32.507Z,12.50
2023-03-21T09:24:34.434Z,12.52
2023-03-21T09:29:36.460Z,12.62
2023-03-21T09:34:41.170Z,12.67
2023-03-21T09:39:44.794Z,12.82
2023-03-21T09:45:17.790Z,12.91
2023-03-21T09:50:27.219Z,13.06
2023-03-21T09:55:36.641Z,13.20
2023-03-21T10:00:46.507Z,13.14
2023-03-21T10:05:49.024Z,13.13
2023-03-21T10:10:59.364Z,13.10
2023-03-21T10:16:10.896Z,13.16
2023-03-21T10:21:47.413Z,13.30
2023-03-21T10:26:44.787Z,13.46
2023-03-21T10:31:47.350Z,13.68
2023-03-21T10:36:49.399Z,13.90
2023-03-21T10:41:51.343Z,13.87
2023-03-21T10:46:58.882Z,13.99
2023-03-21T10:52:08.823Z,14.03
2023-03-21T10:57:21.740Z,14.26
2023-03-21T11:02:35.960Z,14.43
2023-03-21T11:07:38.059Z,14.45
2023-03-21T11:12:41.425Z,14.57
2023-03-21T11:17:45.320Z,14.67
2023-03-21T11:22:48.611Z,14.74
2023-03-21T11:27:53.790Z,14.64
2023-03-21T11:32:58.140Z,14.57
2023-03-21T11:38:00.014Z,14.61
2023-03-21T11:43:24.862Z,14.59
2023-03-21T11:48:27.546Z,14.74
2023-03-21T11:53:40.467Z,14.98
2023-03-21T11:59:13.571Z,15.26
2023-03-21T12:04:18.640Z,15.34
2023-03-21T12:09:37.329Z,15.41
2023-03-21T12:14:59.258Z,15.54
2023-03-21T12:20:30.365Z,15.58
2023-03-21T12:25:42.616Z,15.88
2023-03-21T12:31:05.893Z,15.85
2023-03-21T12:36:38.273Z,16.01
2023-03-21T12:41:49.132Z,16.37
2023-03-21T12:46:58.253Z,16.54
2023-03-21T12:52:06.508Z,16.44
2023-03-21T12:57:23.327Z,16.45
2023-03-21T13:02:31.623Z,16.83
2023-03-21T13:07:38.097Z,16.75
2023-03-21T13:13:00.828Z,16.76
2023-03-21T13:18:21.054Z,17.14
2023-03-21T13:23:25.275Z,17.24
2023-03-21T13:28:35.720Z,17.54
2023-03-21T13:33:44.566Z,17.48
2023-03-21T13:38:51.681Z,17.13
2023-03-21T13:43:55.844Z,17.22
2023-03-21T13:49:00.697Z,17.35
2023-03-21T13:54:08.253Z,17.47
2023-03-21T13:59:11.191Z,17.21
2023-03-21T14:04:24.149Z,17.55
2023-03-21T14:09:41.712Z,17.78
2023-03-21T14:14:51.201Z,17.74
2023-03-21T14:19:54.931Z,17.70
2023-03-21T14:24:59.767Z,17.56
2023-03-21T14:30:03.280Z,17.44
2023-03-21T14:35:11.680Z,17.39
2023-03-21T14:40:22.607Z,17.14
2023-03-21T14:45:27.926Z,17.03
2023-03-21T14:50:49.060Z,17.30
2023-03-21T14:56:01.995Z,17.39
2023-03-21T15:01:05.185Z,16.95
2023-03-21T15:06:11.035Z,16.66
2023-03-21T15:11:13.050Z,16.68
2023-03-21T15:16:15.313Z,16.61
2023-03-21T15:21:24.694Z,16.37
2023-03-21T15:26:27.301Z,16.31
2023-03-21T15:31:34.264Z,16.29
2023-03-21T15:36:43.754Z,16.23
2023-03-21T15:42:23.307Z,16.15
2023-03-21T15:48:02.330Z,16.15
2023-03-21T15:53:16.085Z,16.02
2023-03-21T15:58:23.936Z,15.93
2023-03-21T16:03:27.237Z,15.89
2023-03-21T16:08:36.890Z,15.79
2023-03-21T16:13:38.806Z,15.73
2023-03-21T16:18:40.452Z,15.68
2023-03-21T16:23:42.248Z,15.63
2023-03-21T16:28:47.165Z,15.60
2023-03-21T16:33:49.080Z,15.58
2023-03-21T16:38:55.128Z,15.49
2023-03-21T16:43:56.796Z,15.38
2023-03-21T16:48:58.740Z,15.34
2023-03-21T16:54:01.115Z,15.33
2023-03-21T16:59:03.234Z,15.30
2023-03-21T17:04:08.595Z,15.28
2023-03-21T17:09:13.290Z,15.26
2023-03-21T17:14:21.057Z,15.16
2023-03-21T17:19:27.870Z,14.83
2023-03-21T17:24:29.713Z,14.66
2023-03-21T17:29:31.570Z,14.60
2023-03-21T17:34:33.649Z,14.34
2023-03-21T17:39:35.577Z,14.00
2023-03-21T17:44:37.230Z,13.80
2023-03-21T17:49:39.173Z,13.62
2023-03-21T17:54:41.577Z,13.49
2023-03-21T17:59:43.580Z,13.42
2023-03-21T18:04:45.450Z,13.37
2023-03-21T18:09:47.343Z,13.27
2023-03-21T18:14:49.486Z,13.15
2023-03-21T18:19:51.283Z,13.10
2023-03-21T18:24:53.473Z,13.00
2023-03-21T18:30:25.692Z,12.95
2023-03-21T18:35:19.723Z,13.02
2023-03-21T18:40:24.043Z,12.99
2023-03-21T18:45:26.696Z,12.84
2023-03-21T18:50:28.562Z,12.73
2023-03-21T18:55:45.083Z,12.61
2023-03-21T19:00:50.098Z,12.55
2023-03-21T19:05:51.956Z,12.47
2023-03-21T19:10:54.020Z,12.47
2023-03-21T19:15:56.315Z,12.50
2023-03-21T19:21:00.805Z,12.45
2023-03-21T19:26:02.709Z,12.32
2023-03-21T19:31:06.135Z,12.22
2023-03-21T19:36:17.913Z,12.06
2023-03-21T19:41:23.332Z,12.01
2023-03-21T19:46:26.382Z,11.97
2023-03-21T19:51:30.015Z,11.89
2023-03-21T19:56:34.577Z,11.76
2023-03-21T20:01:36.923Z,11.68
2023-03-21T20:06:38.996Z,11.65
2023-03-21T20:11:40.790Z,11.51
2023-03-21T20:16:43.727Z,11.51
2023-03-21T20:21:53.084Z,11.47
2023-03-21T20:26:58.281Z,11.43
2023-03-21T20:32:00.061Z,11.34
2023-03-21T20:37:03.170Z,11.30
2023-03-21T20:42:05.533Z,11.18
2023-03-21T20:47:08.263Z,10.99
2023-03-21T20:57:32.600Z,11.10
2023-03-21T21:02:34.473Z,11.07
2023-03-21T21:07:36.076Z,11.06
2023-03-21T21:12:39.437Z,10.99
2023-03-21T21:23:04.458Z,11.07
2023-03-21T21:28:09.441Z,11.03
2023-03-21T21:33:11.415Z,10.93
2023-03-21T21:38:19.213Z,10.84
2023-03-21T21:43:21.187Z,10.79
2023-03-21T21:48:23.406Z,10.75
2023-03-21T21:53:28.174Z,10.69
2023-03-21T21:58:33.783Z,10.71
2023-03-21T22:03:41.642Z,10.79
2023-03-21T22:08:46.852Z,10.65
2023-03-21T22:13:49.043Z,10.55
2023-03-21T22:18:50.748Z,10.45
2023-03-21T22:23:52.418Z,10.45
2023-03-21T22:28:54.109Z,10.44
2023-03-21T22:33:55.985Z,10.39
2023-03-21T22:38:57.994Z,10.48
2023-03-21T22:43:59.749Z,10.54
2023-03-21T22:49:01.893Z,10.45
2023-03-21T22:54:03.768Z,10.49
2023-03-21T22:59:05.628Z,10.36
2023-03-21T23:04:07.579Z,10.08
2023-03-21T23:09:10.125Z,10.16
2023-03-21T23:14:15.144Z,10.22
2023-03-21T23:19:17.382Z,10.37
2023-03-21T23:24:19.109Z,10.51
2023-03-21T23:29:20.885Z,10.59
2023-03-21T23:34:22.680Z,10.62
2023-03-21T23:39:24.521Z,10.56
2023-03-21T23:44:27.399Z,10.43
2023-03-21T23:49:33.309Z,10.09
2023-03-21T23:54:35.181Z,10.14
2023-03-21T23:59:36.884Z,10.23
